createdAt,value
2023-01-13T00:01:19.002Z,94820.78
2023-01-13T00:03:47.752Z,94835.50
2023-01-13T00:06:18.502Z,94797.78
2023-01-13T00:08:50.374Z,94842.19
2023-01-13T00:11:19.355Z,94845.94
2023-01-13T00:13:48.050Z,94834.16
2023-01-13T00:16:18.915Z,94832.53
2023-01-13T00:18:47.929Z,94843.22
2023-01-13T00:21:19.242Z,94806.34
2023-01-13T00:23:49.510Z,94819.41
2023-01-13T00:26:19.995Z,94834.13
2023-01-13T00:28:48.414Z,94838.69
2023-01-13T00:31:19.368Z,94777.97
2023-01-13T00:33:49.093Z,94806.34
2023-01-13T00:36:18.411Z,94788.66
2023-01-13T00:38:47.966Z,94809.47
2023-01-13T00:41:19.616Z,94811.09
2023-01-13T00:43:48.251Z,94798.72
2023-01-13T00:46:20.140Z,94813.19
2023-01-13T00:48:49.876Z,94803.03
2023-01-13T00:51:20.630Z,94793.41
2023-01-13T00:53:50.433Z,94808.88
2023-01-13T00:56:38.676Z,94800.09
2023-01-13T00:59:08.197Z,94803.25
2023-01-13T01:01:36.730Z,94797.69
2023-01-13T01:04:05.249Z,94784.56
2023-01-13T01:06:33.488Z,94798.22
2023-01-13T01:09:01.887Z,94771.97
2023-01-13T01:11:33.150Z,94799.53
2023-01-13T01:14:03.921Z,94783.66
2023-01-13T01:16:34.197Z,94793.00
2023-01-13T01:19:03.841Z,94798.19
2023-01-13T01:21:33.568Z,94784.47
2023-01-13T01:24:04.448Z,94786.94
2023-01-13T01:26:34.524Z,94774.63
2023-01-13T01:29:03.432Z,94766.06
2023-01-13T01:31:33.405Z,94775.63
2023-01-13T01:34:03.233Z,94795.78
2023-01-13T01:36:31.904Z,94792.28
2023-01-13T01:39:01.146Z,94769.75
2023-01-13T01:41:32.105Z,94770.78
2023-01-13T01:44:06.827Z,94775.66
2023-01-13T01:46:37.925Z,94768.44
2023-01-13T01:49:15.385Z,94772.94
2023-01-13T01:51:47.276Z,94756.66
2023-01-13T01:54:22.224Z,94776.69
2023-01-13T01:56:51.406Z,94765.97
2023-01-13T01:59:21.176Z,94771.34
2023-01-13T02:01:50.235Z,94754.69
2023-01-13T02:04:24.825Z,94747.03
2023-01-13T02:06:55.046Z,94767.88
2023-01-13T02:09:23.390Z,94743.94
2023-01-13T02:12:08.854Z,94741.84
2023-01-13T02:14:40.678Z,94750.09
2023-01-13T02:17:22.661Z,94744.78
2023-01-13T02:20:26.482Z,94743.97
2023-01-13T02:23:35.433Z,94742.19
2023-01-13T02:26:28.016Z,94752.59
2023-01-13T02:29:28.519Z,94749.16
2023-01-13T02:32:06.094Z,94761.16
2023-01-13T02:34:40.594Z,94566.91
2023-01-13T02:37:14.816Z,94761.97
2023-01-13T02:39:50.203Z,94731.72
2023-01-13T02:42:42.458Z,94744.06
2023-01-13T02:45:16.531Z,94745.03
2023-01-13T02:47:50.966Z,94710.56
2023-01-13T02:50:21.484Z,94727.47
2023-01-13T02:52:54.234Z,94719.91
2023-01-13T02:55:28.125Z,94716.66
2023-01-13T02:57:59.979Z,94708.44
2023-01-13T03:00:29.717Z,94693.16
2023-01-13T03:03:00.933Z,94701.09
2023-01-13T03:05:30.250Z,94707.81
2023-01-13T03:08:15.864Z,94701.91
2023-01-13T03:11:04.412Z,94696.28
2023-01-13T03:13:49.120Z,94693.09
2023-01-13T03:16:29.727Z,94694.72
2023-01-13T03:19:13.612Z,94698.97
2023-01-13T03:21:49.988Z,94687.44
2023-01-13T03:24:21.589Z,94686.31
2023-01-13T03:26:53.537Z,94685.06
2023-01-13T03:29:25.980Z,94695.22
2023-01-13T03:32:00.202Z,94672.16
2023-01-13T03:34:35.075Z,94681.31
2023-01-13T03:37:07.579Z,94693.28
2023-01-13T03:39:41.306Z,94673.22
2023-01-13T03:42:10.412Z,94664.38
2023-01-13T03:44:43.466Z,94661.03
2023-01-13T03:47:19.435Z,94664.13
2023-01-13T03:49:56.146Z,94668.06
2023-01-13T03:52:28.113Z,94670.94
2023-01-13T03:55:01.570Z,94631.56
2023-01-13T04:05:59.714Z,94658.56
2023-01-13T04:08:30.479Z,94657.22
2023-01-13T04:11:04.818Z,94646.78
2023-01-13T04:13:38.482Z,94634.44
2023-01-13T04:16:07.468Z,94672.28
2023-01-13T04:18:39.811Z,94615.00
2023-01-13T04:21:09.639Z,94636.22
2023-01-13T04:27:31.078Z,94637.31
2023-01-13T04:30:06.904Z,94557.44
2023-01-13T04:33:51.531Z,94609.50
2023-01-13T04:36:25.240Z,94616.63
2023-01-13T12:05:06.326Z,94823.00
2023-01-13T12:07:45.326Z,94811.00
2023-01-13T12:10:19.962Z,94812.63
2023-01-13T12:12:54.966Z,94795.06
2023-01-13T12:15:43.971Z,94805.25
2023-01-13T12:18:41.977Z,94810.28
2023-01-13T12:21:21.119Z,94806.53
2023-01-13T12:23:59.721Z,94813.25
2023-01-13T12:26:33.475Z,94804.97
2023-01-13T12:29:07.103Z,94781.91
2023-01-13T12:31:38.111Z,94810.88
2023-01-13T12:34:21.470Z,94787.63
2023-01-13T12:37:00.389Z,94767.56
2023-01-13T12:39:38.376Z,94764.03
2023-01-13T12:42:30.149Z,94835.09
2023-01-13T12:45:27.333Z,94826.03
2023-01-13T12:47:56.577Z,94819.53
2023-01-13T12:50:44.473Z,94829.69
2023-01-13T12:53:47.224Z,94808.91
2023-01-13T12:56:37.627Z,94819.06
2023-01-13T12:59:34.888Z,94815.88
2023-01-13T13:02:29.668Z,94832.66
2023-01-13T13:05:00.304Z,94830.81
2023-01-13T13:07:40.246Z,94843.13
2023-01-13T13:10:18.652Z,94849.81
2023-01-13T13:13:17.885Z,94853.88
2023-01-13T13:15:47.150Z,94863.75
2023-01-13T13:18:27.305Z,94815.06
2023-01-13T13:21:03.960Z,94854.94
2023-01-13T13:24:06.590Z,94857.91
2023-01-13T13:26:42.630Z,94847.47
2023-01-13T13:29:34.892Z,94799.25
2023-01-13T13:32:19.308Z,94845.28
2023-01-13T13:34:58.830Z,94836.75
2023-01-13T13:38:10.001Z,94848.00
2023-01-13T13:41:01.284Z,94851.72
2023-01-13T13:43:50.067Z,94868.84
2023-01-13T13:46:44.438Z,94864.50
2023-01-13T13:49:13.293Z,94877.06
2023-01-13T13:51:46.562Z,94851.66
2023-01-13T13:54:19.303Z,94875.25
2023-01-13T13:56:50.385Z,94905.19
2023-01-13T13:59:23.026Z,94884.25
2023-01-13T14:02:01.600Z,94894.47
2023-01-13T14:04:32.315Z,94864.22
2023-01-13T14:07:04.567Z,94892.88
2023-01-13T14:09:42.909Z,94898.22
2023-01-13T14:12:19.924Z,94907.88
2023-01-13T14:14:51.015Z,94907.34
2023-01-13T14:17:25.557Z,94903.63
2023-01-13T14:20:05.125Z,94901.47
2023-01-13T14:22:34.201Z,94904.72
2023-01-13T14:25:02.701Z,94913.03
2023-01-13T14:27:32.185Z,94903.69
2023-01-13T14:30:02.895Z,94897.53
2023-01-13T14:32:36.627Z,94878.69
2023-01-13T14:35:06.940Z,94889.09
2023-01-13T14:37:40.026Z,94894.44
2023-01-13T14:40:29.014Z,94889.38
2023-01-13T14:43:01.009Z,94900.34
2023-01-13T14:45:33.343Z,94898.44
2023-01-13T14:48:02.983Z,94894.94
2023-01-13T14:50:34.776Z,94891.69
2023-01-13T14:53:05.151Z,94867.25
2023-01-13T14:55:36.568Z,94925.38
2023-01-13T14:58:29.607Z,94926.47
2023-01-13T15:01:31.278Z,94946.28
2023-01-13T15:04:18.134Z,94946.31
2023-01-13T15:06:49.185Z,94953.75
2023-01-13T15:09:26.277Z,94939.25
2023-01-13T15:11:56.433Z,94942.72
2023-01-13T15:14:31.420Z,94952.03
2023-01-13T15:17:01.217Z,94946.44
2023-01-13T15:19:29.649Z,94937.09
2023-01-13T15:21:58.096Z,94937.81
2023-01-13T15:24:26.515Z,94956.31
2023-01-13T15:26:54.881Z,94879.53
2023-01-13T15:29:24.509Z,94952.25
2023-01-13T15:31:54.583Z,94975.00
2023-01-13T15:34:24.368Z,94981.94
2023-01-13T15:36:52.776Z,94988.84
2023-01-13T15:39:21.049Z,94989.16
2023-01-13T15:42:06.984Z,94983.59
2023-01-13T15:44:52.578Z,94989.38
2023-01-13T15:47:22.308Z,95012.91
2023-01-13T15:49:52.059Z,95004.50
2023-01-13T15:52:22.774Z,95020.47
2023-01-13T15:54:51.668Z,95022.16
2023-01-13T15:57:24.479Z,95023.59
2023-01-13T15:59:55.123Z,95049.06
2023-01-13T16:02:23.790Z,95038.19
2023-01-13T16:04:55.057Z,95030.59
2023-01-13T16:07:25.167Z,95029.50
2023-01-13T16:09:53.938Z,95055.84
2023-01-13T16:12:22.351Z,95059.31
2023-01-13T16:14:50.732Z,95013.97
2023-01-13T16:17:21.837Z,95062.63
2023-01-13T16:19:50.888Z,95056.13
2023-01-13T16:22:20.626Z,95067.50
2023-01-13T16:24:49.663Z,95062.69
2023-01-13T16:27:20.206Z,95072.53
2023-01-13T16:29:49.316Z,95076.22
2023-01-13T16:32:20.985Z,95078.84
2023-01-13T16:34:49.568Z,95075.38
2023-01-13T16:37:23.755Z,95078.38
2023-01-13T16:39:53.071Z,95080.81
2023-01-13T16:42:22.138Z,95085.59
2023-01-13T16:44:52.034Z,95078.81
2023-01-13T16:47:20.567Z,95101.38
2023-01-13T16:49:48.975Z,95089.06
2023-01-13T16:52:17.855Z,95101.91
2023-01-13T16:54:47.771Z,95096.34
2023-01-13T16:57:16.662Z,95089.88
2023-01-13T16:59:44.999Z,95085.59
2023-01-13T17:02:16.059Z,95089.94
2023-01-13T17:04:44.698Z,95110.19
2023-01-13T17:07:17.802Z,95055.50
2023-01-13T17:09:47.639Z,95096.38
2023-01-13T17:12:16.089Z,95098.47
2023-01-13T17:14:44.593Z,95115.53
2023-01-13T17:17:23.083Z,95111.84
2023-01-13T17:19:51.857Z,95113.84
2023-01-13T17:22:20.957Z,95133.41
2023-01-13T17:24:51.307Z,95137.50
2023-01-13T17:27:21.364Z,95136.41
2023-01-13T17:29:50.054Z,95140.13
2023-01-13T17:32:19.377Z,95138.06
2023-01-13T17:34:48.750Z,95128.88
2023-01-13T17:37:17.582Z,95098.38
2023-01-13T17:39:48.510Z,95140.22
2023-01-13T17:42:18.839Z,95103.44
2023-01-13T17:44:48.237Z,95143.13
2023-01-13T17:47:16.764Z,95135.44
2023-01-13T17:49:45.296Z,95142.94
2023-01-13T17:52:13.979Z,95151.50
2023-01-13T17:54:43.993Z,95129.88
2023-01-13T17:57:12.962Z,95149.41
2023-01-13T17:59:42.755Z,95153.75
2023-01-13T18:02:13.998Z,95168.47
2023-01-13T18:04:43.028Z,95152.44
2023-01-13T18:07:11.484Z,94940.34
2023-01-13T18:09:39.794Z,95091.91
2023-01-13T18:12:08.367Z,95175.72
2023-01-13T18:14:37.914Z,95144.66
2023-01-13T18:17:08.097Z,95129.59
2023-01-13T18:19:53.495Z,95181.16
2023-01-13T18:22:38.971Z,95172.63
2023-01-13T18:25:29.605Z,95195.31
2023-01-13T18:27:58.326Z,95199.09
2023-01-13T18:30:26.785Z,95195.34
2023-01-13T18:32:56.909Z,95207.66
2023-01-13T18:35:25.591Z,95187.13
2023-01-13T18:37:54.045Z,95232.75
2023-01-13T18:40:22.491Z,95242.59
2023-01-13T18:42:54.413Z,95236.47
2023-01-13T18:45:24.867Z,95208.59
2023-01-13T18:47:54.421Z,95226.34
2023-01-13T18:50:24.624Z,95227.84
2023-01-13T18:52:54.731Z,95216.63
2023-01-13T18:55:23.290Z,95213.34
2023-01-13T18:57:52.906Z,95205.22
2023-01-13T19:00:22.437Z,95208.50
2023-01-13T19:05:38.606Z,95222.09
2023-01-13T19:08:07.855Z,95223.41
2023-01-13T19:10:37.962Z,95226.31
2023-01-13T19:13:06.319Z,95240.69
2023-01-13T19:15:38.281Z,95224.81
2023-01-13T19:18:07.375Z,95231.22
2023-01-13T19:20:38.988Z,95215.16
2023-01-13T19:23:07.896Z,95219.06
2023-01-13T19:25:36.608Z,95184.91
2023-01-13T19:28:05.516Z,95152.41
2023-01-13T19:30:34.030Z,95237.72
2023-01-13T19:33:02.531Z,95257.22
2023-01-13T19:35:30.861Z,95256.06
2023-01-13T19:38:01.023Z,95256.06
2023-01-13T19:40:29.363Z,95229.53
2023-01-13T19:43:15.008Z,95215.81
2023-01-13T19:45:44.706Z,95261.28
2023-01-13T19:48:16.215Z,95279.03
2023-01-13T19:50:45.696Z,95277.41
2023-01-13T19:53:19.812Z,95276.78
2023-01-13T19:55:50.374Z,95268.44
2023-01-13T19:58:20.636Z,95264.19
2023-01-13T20:00:50.054Z,95245.88
2023-01-13T20:03:24.223Z,95259.81
2023-01-13T20:05:54.504Z,95277.28
2023-01-13T20:08:25.701Z,95283.19
2023-01-13T20:11:16.274Z,95289.28
2023-01-13T20:13:45.852Z,95287.81
2023-01-13T20:16:15.521Z,95292.34
2023-01-13T20:18:45.386Z,95289.94
2023-01-13T20:21:14.020Z,95293.66
2023-01-13T20:23:45.623Z,95208.03
2023-01-13T20:26:14.380Z,95257.28
2023-01-13T20:28:42.859Z,95253.91
2023-01-13T20:31:13.619Z,95261.41
2023-01-13T20:33:43.313Z,95274.09
2023-01-13T20:36:26.681Z,95274.41
2023-01-13T20:39:00.918Z,95310.53
2023-01-13T20:41:47.051Z,95317.88
2023-01-13T20:44:17.761Z,95329.03
2023-01-13T20:46:46.865Z,95344.53
2023-01-13T20:49:17.622Z,95347.19
2023-01-13T20:51:45.965Z,95352.97
2023-01-13T20:54:16.541Z,95354.84
2023-01-13T20:56:46.046Z,95352.03
2023-01-13T20:59:15.114Z,95358.00
2023-01-13T21:01:43.731Z,95268.16
2023-01-13T21:04:12.732Z,95341.78
2023-01-13T21:06:43.293Z,95360.59
2023-01-13T21:09:12.813Z,95365.94
2023-01-13T21:12:00.769Z,95362.47
2023-01-13T21:14:47.543Z,95356.25
2023-01-13T21:17:33.940Z,95345.56
2023-01-13T21:20:04.408Z,95368.59
2023-01-13T21:22:33.402Z,95356.78
2023-01-13T21:25:03.105Z,95355.09
2023-01-13T21:27:36.341Z,95355.91
2023-01-13T21:30:06.107Z,95348.16
2023-01-13T21:32:35.960Z,95367.81
2023-01-13T21:35:05.662Z,95377.59
2023-01-13T21:37:34.307Z,95375.63
2023-01-13T21:40:03.011Z,95380.91
2023-01-13T21:42:50.253Z,95378.50
2023-01-13T21:45:36.573Z,95383.44
2023-01-13T21:48:05.335Z,95378.72
2023-01-13T21:50:33.988Z,95389.75
2023-01-13T21:53:02.930Z,95378.31
2023-01-13T21:55:32.509Z,95390.88
2023-01-13T21:58:16.143Z,95397.97
2023-01-13T22:00:46.438Z,95411.56
2023-01-13T22:03:19.021Z,95406.56
2023-01-13T22:05:47.594Z,95414.78
2023-01-13T22:08:16.388Z,95413.91
2023-01-13T22:10:59.006Z,95417.06
2023-01-13T22:13:48.057Z,95424.84
2023-01-13T22:16:17.013Z,95427.25
2023-01-13T22:18:45.539Z,95432.75
2023-01-13T22:21:14.025Z,95442.00
2023-01-13T22:23:42.504Z,95430.78
2023-01-13T22:26:11.386Z,95444.72
2023-01-13T22:28:44.471Z,95443.66
2023-01-13T22:31:14.398Z,95448.66
2023-01-13T22:33:43.740Z,95447.16
2023-01-13T22:36:12.524Z,95450.78
2023-01-13T22:38:41.087Z,95444.41
2023-01-13T22:41:11.015Z,95454.00
2023-01-13T22:43:41.508Z,95457.63
2023-01-13T22:46:12.071Z,95452.22
2023-01-13T22:48:41.306Z,95453.59
2023-01-13T22:51:11.977Z,95458.91
2023-01-13T22:53:40.888Z,95456.59
2023-01-13T22:56:11.754Z,95447.94
2023-01-13T22:58:41.543Z,95464.13
2023-01-13T23:01:12.017Z,95468.97
2023-01-13T23:03:40.569Z,95451.03
2023-01-13T23:06:09.430Z,95467.03
2023-01-13T23:08:38.263Z,95470.13
2023-01-13T23:11:09.260Z,95441.78
2023-01-13T23:13:39.512Z,95470.13
2023-01-13T23:16:12.209Z,95468.06
2023-01-13T23:18:42.734Z,95466.34
2023-01-13T23:21:13.408Z,95473.75
2023-01-13T23:23:41.817Z,95468.31
2023-01-13T23:26:11.526Z,95465.31
2023-01-13T23:28:40.457Z,95477.94
2023-01-13T23:31:12.118Z,95457.09
2023-01-13T23:33:41.439Z,95477.75
2023-01-13T23:36:14.297Z,95464.38
2023-01-13T23:38:43.600Z,95466.59
2023-01-13T23:41:13.381Z,95432.59
2023-01-13T23:43:41.899Z,95474.69
2023-01-13T23:46:13.563Z,95463.56
2023-01-13T23:48:41.973Z,95479.47
2023-01-13T23:51:12.873Z,95490.13
2023-01-13T23:53:43.618Z,95475.47
2023-01-13T23:56:14.964Z,95493.28
2023-01-13T23:58:43.617Z,95492.31
